createdAt,value
2023-03-03T00:01:58.075Z,65.30
2023-03-03T00:04:26.102Z,66.70
2023-03-03T00:06:54.041Z,66.40
2023-03-03T00:09:21.909Z,65.60
2023-03-03T00:11:55.882Z,62.40
2023-03-03T00:14:32.665Z,60.80
2023-03-03T00:17:07.386Z,60.70
2023-03-03T00:19:41.389Z,59.70
2023-03-03T00:22:29.097Z,57.20
2023-03-03T00:25:29.373Z,56.90
2023-03-03T00:28:16.511Z,56.90
2023-03-03T00:30:44.443Z,55.70
2023-03-03T00:33:33.124Z,56.40
2023-03-03T00:36:38.266Z,56.30
2023-03-03T00:39:38.274Z,50.70
2023-03-03T00:42:17.396Z,51.80
2023-03-03T00:44:48.646Z,51.20
2023-03-03T00:47:43.684Z,50.40
2023-03-03T00:50:11.634Z,50.60
2023-03-03T00:53:11.872Z,50.70
2023-03-03T00:55:40.659Z,49.90
2023-03-03T00:58:09.590Z,48.10
2023-03-03T01:00:41.285Z,48.10
2023-03-03T01:03:14.709Z,48.10
2023-03-03T01:05:43.200Z,51.10
2023-03-03T01:08:11.633Z,49.10
2023-03-03T01:10:45.579Z,47.10
2023-03-03T01:13:13.640Z,45.70
2023-03-03T01:15:41.703Z,48.80
2023-03-03T01:18:11.801Z,49.40
2023-03-03T01:20:40.618Z,52.40
2023-03-03T01:23:09.362Z,55.70
2023-03-03T01:25:37.727Z,53.20
2023-03-03T01:28:06.857Z,54.80
2023-03-03T01:30:35.168Z,52.10
2023-03-03T01:33:03.285Z,50.90
2023-03-03T01:35:31.597Z,54.60
2023-03-03T01:37:59.614Z,56.90
2023-03-03T01:40:30.291Z,73.30
2023-03-03T01:43:01.106Z,66.30
2023-03-03T01:45:50.670Z,54.90
2023-03-03T01:48:25.379Z,48.50
2023-03-03T01:51:17.532Z,50.00
2023-03-03T01:53:51.311Z,46.60
2023-03-03T01:56:19.349Z,49.40
2023-03-03T01:58:53.045Z,49.20
2023-03-03T02:01:24.735Z,47.30
2023-03-03T02:03:53.513Z,47.00
2023-03-03T02:06:30.052Z,44.40
2023-03-03T02:09:12.455Z,44.70
2023-03-03T02:11:44.439Z,44.20
2023-03-03T02:14:13.019Z,42.40
2023-03-03T02:16:42.591Z,46.40
2023-03-03T02:19:31.929Z,43.60
2023-03-03T02:22:02.424Z,44.30
2023-03-03T02:24:43.333Z,42.00
2023-03-03T02:27:11.389Z,41.90
2023-03-03T02:29:39.824Z,43.20
2023-03-03T02:32:08.148Z,43.80
2023-03-03T02:34:49.417Z,45.70
2023-03-03T02:37:19.846Z,44.90
2023-03-03T02:39:47.764Z,45.50
2023-03-03T02:42:22.526Z,46.80
2023-03-03T02:44:53.792Z,46.20
2023-03-03T02:47:21.686Z,49.00
2023-03-03T02:49:49.844Z,49.50
2023-03-03T02:52:19.222Z,52.00
2023-03-03T02:54:48.132Z,54.10
2023-03-03T02:57:16.050Z,53.60
2023-03-03T02:59:43.996Z,51.00
2023-03-03T03:02:14.111Z,63.70
2023-03-03T03:04:42.408Z,83.80
2023-03-03T03:07:11.883Z,89.30
2023-03-03T03:09:40.168Z,75.00
2023-03-03T03:12:08.724Z,64.40
2023-03-03T03:14:37.399Z,58.40
2023-03-03T03:17:06.351Z,54.90
2023-03-03T03:19:34.272Z,53.40
2023-03-03T03:22:03.481Z,51.50
2023-03-03T03:24:31.690Z,50.80
2023-03-03T03:27:03.470Z,50.10
2023-03-03T03:29:31.407Z,51.20
2023-03-03T03:31:59.415Z,49.10
2023-03-03T03:34:27.412Z,49.50
2023-03-03T03:36:55.524Z,47.30
2023-03-03T03:39:24.244Z,45.60
2023-03-03T03:41:52.901Z,45.20
2023-03-03T03:44:21.359Z,45.50
2023-03-03T03:46:49.438Z,48.10
2023-03-03T03:49:18.916Z,57.70
2023-03-03T03:51:48.894Z,65.20
2023-03-03T03:54:17.886Z,61.10
2023-03-03T03:56:45.987Z,60.10
2023-03-03T03:59:13.915Z,55.80
2023-03-03T04:01:41.866Z,50.10
2023-03-03T04:04:09.851Z,45.40
2023-03-03T04:06:37.807Z,40.50
2023-03-03T04:09:06.404Z,37.40
2023-03-03T04:11:34.925Z,30.20
2023-03-03T04:14:04.522Z,27.10
2023-03-03T04:16:33.249Z,26.50
2023-03-03T04:19:01.302Z,25.00
2023-03-03T04:21:29.826Z,24.20
2023-03-03T04:23:59.736Z,25.60
2023-03-03T04:26:28.103Z,24.70
2023-03-03T04:28:56.190Z,25.90
2023-03-03T04:31:25.873Z,24.30
2023-03-03T04:33:53.951Z,24.00
2023-03-03T04:36:23.357Z,24.00
2023-03-03T04:38:51.458Z,23.10
2023-03-03T04:41:20.190Z,22.90
2023-03-03T04:43:48.137Z,22.80
2023-03-03T04:46:16.133Z,23.40
2023-03-03T04:48:44.184Z,23.90
2023-03-03T04:51:12.358Z,24.00
2023-03-03T04:53:40.540Z,23.10
2023-03-03T04:56:08.822Z,21.70
2023-03-03T04:58:37.472Z,22.20
2023-03-03T05:01:05.874Z,22.10
2023-03-03T05:03:34.175Z,20.70
2023-03-03T05:06:02.165Z,21.50
2023-03-03T05:08:30.079Z,21.00
2023-03-03T05:10:59.875Z,20.80
2023-03-03T05:13:28.472Z,20.30
2023-03-03T05:15:57.058Z,24.80
2023-03-03T05:18:28.509Z,41.00
2023-03-03T05:20:56.438Z,40.20
2023-03-03T05:23:25.004Z,37.70
2023-03-03T05:25:52.925Z,57.50
2023-03-03T05:28:21.181Z,53.50
2023-03-03T05:30:49.230Z,48.00
2023-03-03T05:33:18.051Z,37.60
2023-03-03T05:35:46.607Z,32.90
2023-03-03T05:38:14.521Z,28.40
2023-03-03T05:40:44.009Z,25.30
2023-03-03T05:43:11.972Z,24.00
2023-03-03T05:45:39.891Z,23.50
2023-03-03T05:48:07.892Z,22.10
2023-03-03T05:50:37.463Z,22.10
2023-03-03T05:53:05.494Z,21.00
2023-03-03T05:55:33.482Z,21.60
2023-03-03T05:58:01.315Z,22.00
2023-03-03T06:00:29.198Z,21.40
2023-03-03T06:03:02.050Z,20.70
2023-03-03T06:05:30.076Z,20.00
2023-03-03T06:07:58.042Z,21.10
2023-03-03T06:10:26.066Z,23.60
2023-03-03T06:12:55.307Z,22.90
2023-03-03T06:15:23.807Z,23.30
2023-03-03T06:17:51.867Z,21.30
2023-03-03T06:20:20.126Z,21.50
2023-03-03T06:22:48.161Z,21.60
2023-03-03T06:25:16.142Z,22.80
2023-03-03T06:27:44.291Z,22.60
2023-03-03T06:30:13.025Z,24.10
2023-03-03T06:32:41.045Z,22.40
2023-03-03T06:35:09.091Z,22.90
2023-03-03T06:37:37.225Z,23.30
2023-03-03T06:40:06.339Z,22.70
2023-03-03T06:42:34.213Z,22.80
2023-03-03T06:45:02.144Z,21.00
2023-03-03T06:47:30.357Z,21.20
2023-03-03T06:49:58.423Z,21.80
2023-03-03T06:52:28.016Z,21.80
2023-03-03T06:54:58.984Z,21.40
2023-03-03T06:57:30.250Z,22.00
2023-03-03T07:00:15.967Z,23.10
2023-03-03T07:02:44.130Z,22.30
2023-03-03T07:05:18.547Z,20.70
2023-03-03T07:07:46.514Z,19.60
2023-03-03T07:10:23.540Z,20.20
2023-03-03T07:12:52.280Z,21.10
2023-03-03T07:15:28.823Z,18.60
2023-03-03T07:18:00.215Z,20.70
2023-03-03T07:20:38.869Z,19.60
2023-03-03T07:23:24.097Z,21.30
2023-03-03T07:25:53.329Z,19.60
2023-03-03T07:28:33.101Z,20.20
2023-03-03T07:31:01.076Z,21.70
2023-03-03T07:33:40.087Z,21.00
2023-03-03T07:36:26.470Z,20.80
2023-03-03T07:38:58.100Z,20.40
2023-03-03T07:41:27.738Z,21.00
2023-03-03T07:44:04.970Z,21.10
2023-03-03T07:46:48.184Z,21.70
2023-03-03T07:49:29.598Z,22.90
2023-03-03T07:51:59.740Z,21.00
2023-03-03T07:54:36.436Z,21.40
2023-03-03T07:57:10.145Z,20.30
2023-03-03T07:59:49.302Z,21.20
2023-03-03T08:02:39.041Z,21.70
2023-03-03T08:05:43.505Z,20.60
2023-03-03T08:08:29.473Z,21.40
2023-03-03T08:10:59.545Z,19.20
2023-03-03T08:13:39.142Z,19.60
2023-03-03T08:16:10.190Z,19.30
2023-03-03T08:18:42.535Z,19.90
2023-03-03T08:21:18.516Z,21.00
2023-03-03T08:23:46.619Z,18.90
2023-03-03T08:26:15.144Z,20.20
2023-03-03T08:28:43.269Z,20.90
2023-03-03T08:31:22.389Z,20.70
2023-03-03T08:33:55.862Z,21.50
2023-03-03T08:36:23.700Z,21.10
2023-03-03T08:38:51.592Z,21.30
2023-03-03T08:41:19.569Z,18.30
2023-03-03T08:43:47.564Z,19.70
2023-03-03T08:46:16.374Z,20.40
2023-03-03T08:48:45.055Z,19.90
2023-03-03T08:51:18.520Z,19.30
2023-03-03T08:53:46.430Z,20.40
2023-03-03T08:56:14.361Z,20.80
2023-03-03T08:59:01.160Z,19.70
2023-03-03T09:01:32.441Z,18.90
2023-03-03T09:04:00.942Z,20.20
2023-03-03T09:06:29.154Z,18.20
2023-03-03T09:08:57.040Z,19.10
2023-03-03T09:11:28.294Z,18.90
2023-03-03T09:14:13.066Z,18.40
2023-03-03T09:17:03.583Z,17.70
2023-03-03T09:19:37.473Z,18.60
2023-03-03T09:22:24.645Z,18.50
2023-03-03T09:24:59.173Z,19.80
2023-03-03T09:27:35.212Z,18.20
2023-03-03T09:30:29.131Z,19.10
2023-03-03T09:32:58.660Z,16.60
2023-03-03T09:35:36.825Z,19.00
2023-03-03T09:38:28.023Z,19.80
2023-03-03T09:43:56.375Z,15.90
2023-03-03T09:47:22.163Z,16.20
2023-03-03T09:49:54.947Z,16.10
2023-03-03T09:52:48.359Z,18.20
2023-03-03T09:55:26.652Z,22.90
2023-03-03T09:58:10.381Z,19.60
2023-03-03T10:01:12.513Z,18.00
2023-03-03T10:03:59.371Z,18.80
2023-03-03T10:06:31.708Z,19.20
2023-03-03T10:09:44.473Z,18.90
2023-03-03T10:12:31.142Z,19.10
2023-03-03T10:15:20.035Z,18.60
2023-03-03T10:17:53.983Z,18.40
2023-03-03T10:20:54.754Z,18.60
2023-03-03T10:23:58.351Z,17.90
2023-03-03T10:27:13.503Z,18.00
2023-03-03T10:29:59.399Z,17.70
2023-03-03T10:32:42.469Z,19.20
2023-03-03T10:35:31.164Z,20.80
2023-03-03T10:38:22.972Z,17.90
2023-03-03T10:41:04.400Z,25.00
2023-03-03T10:43:35.256Z,17.50
2023-03-03T10:47:00.184Z,23.30
2023-03-03T10:49:39.366Z,31.20
2023-03-03T10:52:19.509Z,17.50
2023-03-03T10:54:47.504Z,17.80
2023-03-03T10:57:54.994Z,17.80
2023-03-03T11:00:30.345Z,20.00
2023-03-03T11:03:01.751Z,19.30
2023-03-03T11:05:44.991Z,17.00
2023-03-03T11:08:46.878Z,16.90
2023-03-03T11:11:50.193Z,19.90
2023-03-03T11:14:30.398Z,17.80
2023-03-03T11:17:09.894Z,21.70
2023-03-03T11:19:43.133Z,28.00
2023-03-03T11:22:17.156Z,31.20
2023-03-03T11:25:03.669Z,23.00
2023-03-03T11:27:51.586Z,19.60
2023-03-03T11:30:34.391Z,19.80
2023-03-03T11:33:16.288Z,18.00
2023-03-03T11:36:18.197Z,17.90
2023-03-03T11:38:54.636Z,16.40
2023-03-03T11:41:32.475Z,17.60
2023-03-03T11:44:12.333Z,16.40
2023-03-03T11:46:49.924Z,16.40
2023-03-03T11:49:29.049Z,16.70
2023-03-03T11:52:14.553Z,16.90
2023-03-03T11:54:49.293Z,13.70
2023-03-03T11:57:43.707Z,13.50
2023-03-03T12:00:29.286Z,13.90
2023-03-03T12:03:16.796Z,13.80
2023-03-03T12:05:52.930Z,15.30
2023-03-03T12:08:48.115Z,21.10
2023-03-03T12:11:27.569Z,18.40
2023-03-03T12:14:03.010Z,15.50
2023-03-03T12:16:52.849Z,21.90
2023-03-03T12:19:50.834Z,19.50
2023-03-03T12:22:34.409Z,16.80
2023-03-03T12:25:17.819Z,18.20
2023-03-03T12:28:05.760Z,18.20
2023-03-03T12:30:46.027Z,13.90
2023-03-03T12:33:48.168Z,16.60
2023-03-03T12:36:31.257Z,16.60
2023-03-03T12:39:33.956Z,18.10
2023-03-03T12:42:24.786Z,16.50
2023-03-03T12:45:20.872Z,15.70
2023-03-03T12:48:01.117Z,17.70
2023-03-03T12:50:59.169Z,16.40
2023-03-03T12:53:48.894Z,17.50
2023-03-03T12:56:30.952Z,14.90
2023-03-03T12:59:17.158Z,16.00
2023-03-03T13:02:04.564Z,17.00
2023-03-03T13:04:39.914Z,17.30
2023-03-03T13:07:28.350Z,17.40
2023-03-03T13:10:23.992Z,16.20
2023-03-03T13:12:54.983Z,17.90
2023-03-03T13:15:37.931Z,19.10
2023-03-03T13:18:23.971Z,18.60
2023-03-03T13:21:00.154Z,18.50
2023-03-03T13:23:49.117Z,19.50
2023-03-03T13:26:17.169Z,20.30
2023-03-03T13:28:48.505Z,17.00
2023-03-03T13:31:22.504Z,21.50
2023-03-03T13:33:56.278Z,20.40
2023-03-03T13:36:50.919Z,21.10
2023-03-03T13:39:31.081Z,18.90
2023-03-03T13:42:04.911Z,17.70
2023-03-03T13:44:42.977Z,20.30
2023-03-03T13:47:18.388Z,20.00
2023-03-03T13:50:15.776Z,20.10
2023-03-03T13:53:03.520Z,19.30
2023-03-03T13:55:44.890Z,20.00
2023-03-03T13:58:25.398Z,17.40
2023-03-03T14:01:02.057Z,20.80
2023-03-03T14:04:08.851Z,22.70
2023-03-03T14:06:40.739Z,19.50
2023-03-03T14:09:34.725Z,17.80
2023-03-03T14:12:33.492Z,19.30
2023-03-03T14:15:21.710Z,37.20
2023-03-03T14:17:58.736Z,26.10
2023-03-03T14:20:35.772Z,23.00
2023-03-03T14:23:34.958Z,21.10
2023-03-03T14:26:11.371Z,24.60
2023-03-03T14:28:44.099Z,22.50
2023-03-03T14:31:24.689Z,19.30
2023-03-03T14:34:18.184Z,21.10
2023-03-03T14:36:46.074Z,23.90
2023-03-03T14:39:32.577Z,20.80
2023-03-03T14:42:02.176Z,19.00
2023-03-03T14:44:36.448Z,18.20
2023-03-03T14:47:10.353Z,21.20
2023-03-03T14:49:40.427Z,19.90
2023-03-03T14:52:17.694Z,19.70
2023-03-03T14:54:48.842Z,18.80
2023-03-03T14:57:20.719Z,19.10
2023-03-03T15:00:06.867Z,21.10
2023-03-03T15:03:00.063Z,19.80
2023-03-03T15:05:31.062Z,21.50
2023-03-03T15:10:44.599Z,23.70
2023-03-03T15:13:21.852Z,25.20
2023-03-03T15:16:01.131Z,32.50
2023-03-03T15:18:34.657Z,24.80
2023-03-03T15:21:09.564Z,25.60
2023-03-03T15:23:47.508Z,25.70
2023-03-03T15:26:35.615Z,21.70
2023-03-03T15:29:21.952Z,18.40
2023-03-03T15:31:55.728Z,18.30
2023-03-03T15:34:26.686Z,19.90
2023-03-03T15:39:59.331Z,22.10
2023-03-03T15:42:36.346Z,25.60
2023-03-03T15:45:23.028Z,19.20
2023-03-03T15:48:12.778Z,20.00
2023-03-03T15:51:06.002Z,19.60
2023-03-03T15:54:06.468Z,18.70
2023-03-03T15:56:50.885Z,19.00
2023-03-03T15:59:31.395Z,18.10
2023-03-03T16:02:23.922Z,21.40
2023-03-03T16:05:00.453Z,19.90
2023-03-03T16:07:37.533Z,20.70
2023-03-03T16:10:36.499Z,21.10
2023-03-03T16:13:22.710Z,18.30
2023-03-03T16:16:11.241Z,19.10
2023-03-03T16:18:58.529Z,19.00
2023-03-03T16:22:12.032Z,19.00
2023-03-03T16:24:52.190Z,19.40
2023-03-03T16:27:46.688Z,20.50
2023-03-03T16:30:42.642Z,18.10
2023-03-03T16:33:27.251Z,18.60
2023-03-03T16:36:17.290Z,21.10
2023-03-03T16:39:06.576Z,21.40
2023-03-03T16:41:53.115Z,24.40
2023-03-03T16:44:38.362Z,25.20
2023-03-03T16:47:35.134Z,24.10
2023-03-03T16:50:19.636Z,23.70
2023-03-03T16:53:15.420Z,24.40
2023-03-03T16:55:52.841Z,25.60
2023-03-03T16:58:35.672Z,29.30
2023-03-03T17:01:19.071Z,30.00
2023-03-03T17:04:06.101Z,27.80
2023-03-03T17:06:41.636Z,24.00
2023-03-03T17:09:33.954Z,22.50
2023-03-03T17:12:20.365Z,23.60
2023-03-03T17:14:48.452Z,20.20
2023-03-03T17:17:38.863Z,23.10
2023-03-03T17:20:13.558Z,25.70
2023-03-03T17:22:47.336Z,25.30
2023-03-03T17:25:17.945Z,27.70
2023-03-03T17:28:10.563Z,27.60
2023-03-03T17:30:56.725Z,26.10
2023-03-03T17:33:30.644Z,46.30
2023-03-03T17:36:28.982Z,28.00
2023-03-03T17:39:19.405Z,25.40
2023-03-03T17:42:17.732Z,25.30
2023-03-03T17:44:58.709Z,21.20
2023-03-03T17:47:38.018Z,21.50
2023-03-03T17:50:27.223Z,26.90
2023-03-03T17:53:13.203Z,26.30
2023-03-03T17:56:00.171Z,22.40
2023-03-03T17:58:45.170Z,25.10
2023-03-03T18:01:41.123Z,26.60
2023-03-03T18:04:18.184Z,27.10
2023-03-03T18:07:19.878Z,24.20
2023-03-03T18:09:59.233Z,20.10
2023-03-03T18:12:45.985Z,21.50
2023-03-03T18:15:58.769Z,22.90
2023-03-03T18:18:46.391Z,24.60
2023-03-03T18:21:25.543Z,22.30
2023-03-03T18:24:33.986Z,24.60
2023-03-03T18:27:24.223Z,25.20
2023-03-03T18:30:15.919Z,25.50
2023-03-03T18:32:56.225Z,27.10
2023-03-03T18:35:33.454Z,24.90
2023-03-03T18:38:16.958Z,68.20
2023-03-03T18:41:01.316Z,26.90
2023-03-03T18:43:44.364Z,23.30
2023-03-03T18:46:22.843Z,21.00
2023-03-03T18:49:07.004Z,22.10
2023-03-03T18:51:35.250Z,26.70
2023-03-03T18:54:12.608Z,26.20
2023-03-03T18:57:04.921Z,27.60
2023-03-03T18:59:36.037Z,27.50
2023-03-03T19:04:39.355Z,52.20
2023-03-03T19:07:39.384Z,49.90
2023-03-03T19:10:19.336Z,48.80
2023-03-03T19:12:59.962Z,46.60
2023-03-03T19:15:33.947Z,45.00
2023-03-03T19:18:27.965Z,40.50
2023-03-03T19:21:27.005Z,42.50
2023-03-03T19:24:26.787Z,51.20
2023-03-03T19:27:09.735Z,43.70
2023-03-03T19:29:46.809Z,47.60
2023-03-03T19:32:49.192Z,38.40
2023-03-03T19:35:28.612Z,36.70
2023-03-03T19:38:19.236Z,44.50
2023-03-03T19:40:47.574Z,36.90
2023-03-03T19:43:44.637Z,37.80
2023-03-03T19:46:36.446Z,36.80
2023-03-03T19:49:16.542Z,36.40
2023-03-03T19:52:07.492Z,41.10
2023-03-03T19:54:45.900Z,37.90
2023-03-03T19:58:06.404Z,39.10
2023-03-03T20:00:43.988Z,49.80
2023-03-03T20:03:30.475Z,56.20
2023-03-03T20:06:24.050Z,45.20
2023-03-03T20:09:02.906Z,38.80
2023-03-03T20:11:48.211Z,41.30
2023-03-03T20:14:38.925Z,44.80
2023-03-03T20:17:22.053Z,46.30
2023-03-03T20:20:08.449Z,43.20
2023-03-03T20:22:56.971Z,38.90
2023-03-03T20:25:34.946Z,46.10
2023-03-03T20:28:30.819Z,39.70
2023-03-03T20:31:36.535Z,40.90
2023-03-03T20:34:38.735Z,42.80
2023-03-03T20:37:31.255Z,42.10
2023-03-03T20:40:30.944Z,40.70
2023-03-03T20:43:25.081Z,39.30
2023-03-03T20:46:24.098Z,36.70
2023-03-03T20:49:15.745Z,30.90
2023-03-03T20:51:58.996Z,28.00
2023-03-03T20:54:57.076Z,25.90
2023-03-03T20:57:47.109Z,26.70
2023-03-03T21:00:18.180Z,26.10
2023-03-03T21:06:02.746Z,27.10
2023-03-03T21:08:43.030Z,27.10
2023-03-03T21:11:12.295Z,29.20
2023-03-03T21:13:46.614Z,31.40
2023-03-03T21:16:20.506Z,32.60
2023-03-03T21:19:03.265Z,31.40
2023-03-03T21:21:40.461Z,30.30
2023-03-03T21:24:15.310Z,29.70
2023-03-03T21:27:23.403Z,30.20
2023-03-03T21:30:13.043Z,29.90
2023-03-03T21:32:46.404Z,31.30
2023-03-03T21:35:17.938Z,31.20
2023-03-03T21:37:58.027Z,30.10
2023-03-03T21:40:31.248Z,36.60
2023-03-03T21:43:00.307Z,45.10
2023-03-03T21:45:30.141Z,45.70
2023-03-03T21:48:00.253Z,44.70
2023-03-03T21:50:32.954Z,43.70
2023-03-03T21:53:00.909Z,38.60
2023-03-03T21:55:29.218Z,37.90
2023-03-03T21:57:57.258Z,34.60
2023-03-03T22:00:25.475Z,33.80
2023-03-03T22:02:55.364Z,33.00
2023-03-03T22:05:23.738Z,32.60
2023-03-03T22:07:51.710Z,33.40
2023-03-03T22:10:20.259Z,31.90
2023-03-03T22:12:48.164Z,32.10
2023-03-03T22:15:16.463Z,32.80
2023-03-03T22:17:45.489Z,32.60
2023-03-03T22:20:15.489Z,32.80
2023-03-03T22:22:43.714Z,34.90
2023-03-03T22:25:11.653Z,32.40
2023-03-03T22:27:39.578Z,29.80
2023-03-03T22:30:14.155Z,31.50
2023-03-03T22:32:42.088Z,31.00
2023-03-03T22:35:10.189Z,30.80
2023-03-03T22:37:38.067Z,31.00
2023-03-03T22:40:06.887Z,32.00
2023-03-03T22:42:34.666Z,30.20
2023-03-03T22:45:02.806Z,33.70
2023-03-03T22:47:33.396Z,29.70
2023-03-03T22:50:01.394Z,31.90
2023-03-03T22:52:29.274Z,29.50
2023-03-03T22:54:58.974Z,30.90
2023-03-03T22:57:27.091Z,31.40
2023-03-03T22:59:55.221Z,31.20
2023-03-03T23:02:23.114Z,31.20
2023-03-03T23:04:57.717Z,34.20
2023-03-03T23:07:26.486Z,34.90
2023-03-03T23:09:55.352Z,34.70
2023-03-03T23:12:26.017Z,36.90
2023-03-03T23:14:53.869Z,33.30
2023-03-03T23:17:22.287Z,33.60
2023-03-03T23:19:50.261Z,31.50
2023-03-03T23:22:18.884Z,32.00
2023-03-03T23:24:46.873Z,32.30
2023-03-03T23:27:14.704Z,32.10
2023-03-03T23:29:42.560Z,30.50
2023-03-03T23:32:10.861Z,31.50
2023-03-03T23:34:38.768Z,32.30
2023-03-03T23:37:06.724Z,30.90
2023-03-03T23:39:43.639Z,36.00
2023-03-03T23:42:11.682Z,35.20
2023-03-03T23:44:40.946Z,33.70
2023-03-03T23:47:09.724Z,34.00
2023-03-03T23:49:37.861Z,34.80
2023-03-03T23:52:06.731Z,36.30
2023-03-03T23:54:37.830Z,33.30
2023-03-03T23:57:08.332Z,35.80
2023-03-03T23:59:36.637Z,36.90
